createdAt,value
2019-06-20T00:00:29.909Z,19.70
2019-06-20T00:03:01.501Z,19.70
2019-06-20T00:05:33.986Z,19.50
2019-06-20T00:08:05.965Z,19.60
2019-06-20T00:10:37.761Z,19.60
2019-06-20T00:13:10.357Z,19.60
2019-06-20T00:15:41.943Z,19.60
2019-06-20T00:18:13.789Z,19.60
2019-06-20T00:20:45.255Z,19.60
2019-06-20T00:23:16.595Z,19.60
2019-06-20T00:25:48.201Z,19.60
2019-06-20T00:28:19.693Z,19.50
2019-06-20T00:30:50.950Z,19.50
2019-06-20T00:33:22.389Z,19.50
2019-06-20T00:35:54.186Z,19.50
2019-06-20T00:38:27.294Z,19.40
2019-06-20T00:40:58.673Z,19.40
2019-06-20T00:43:30.114Z,19.40
2019-06-20T00:46:01.444Z,19.30
2019-06-20T00:48:32.832Z,19.30
2019-06-20T00:51:04.488Z,19.20
2019-06-20T00:53:36.695Z,19.20
2019-06-20T00:56:08.302Z,19.20
2019-06-20T00:58:39.758Z,19.20
2019-06-20T01:01:11.085Z,19.20
2019-06-20T01:03:42.656Z,19.20
2019-06-20T01:06:14.056Z,19.10
2019-06-20T01:08:45.382Z,19.10
2019-06-20T01:11:17.094Z,19.10
2019-06-20T01:13:48.587Z,19.10
2019-06-20T01:16:20.029Z,19.10
2019-06-20T01:18:51.421Z,19.00
2019-06-20T01:21:22.726Z,19.10
2019-06-20T01:23:55.199Z,19.10
2019-06-20T01:26:26.513Z,19.00
2019-06-20T01:28:57.885Z,19.00
2019-06-20T01:31:29.168Z,18.90
2019-06-20T01:34:00.592Z,19.00
2019-06-20T01:36:31.935Z,19.00
2019-06-20T01:39:03.704Z,19.00
2019-06-20T01:41:36.859Z,19.00
2019-06-20T01:44:08.406Z,19.00
2019-06-20T01:46:39.927Z,19.00
2019-06-20T01:49:11.296Z,19.00
2019-06-20T01:51:42.664Z,19.10
2019-06-20T01:54:14.136Z,19.00
2019-06-20T01:56:45.462Z,19.00
2019-06-20T01:59:16.882Z,18.90
2019-06-20T02:01:48.216Z,19.00
2019-06-20T02:04:21.313Z,18.90
2019-06-20T02:06:52.697Z,18.90
2019-06-20T02:09:24.074Z,18.90
2019-06-20T02:11:55.492Z,18.90
2019-06-20T02:14:26.861Z,18.90
2019-06-20T02:16:58.374Z,18.90
2019-06-20T02:19:29.795Z,18.90
2019-06-20T02:22:01.102Z,18.90
2019-06-20T02:24:32.463Z,18.90
2019-06-20T02:27:04.018Z,18.80
2019-06-20T02:29:35.638Z,18.80
2019-06-20T02:32:07.193Z,18.80
2019-06-20T02:34:38.526Z,18.90
2019-06-20T02:37:10.442Z,19.00
2019-06-20T02:39:41.758Z,19.00
2019-06-20T02:42:13.138Z,19.00
2019-06-20T02:44:44.533Z,19.40
2019-06-20T02:47:15.937Z,20.00
2019-06-20T02:49:47.356Z,19.90
2019-06-20T02:52:18.876Z,20.20
2019-06-20T02:54:50.230Z,21.20
2019-06-20T02:57:21.751Z,21.20
2019-06-20T02:59:53.056Z,21.60
2019-06-20T03:02:24.445Z,22.10
2019-06-20T03:04:55.718Z,22.30
2019-06-20T03:07:27.142Z,21.80
2019-06-20T03:09:58.436Z,21.40
2019-06-20T03:12:29.921Z,21.20
2019-06-20T03:15:01.285Z,21.20
2019-06-20T03:17:32.740Z,21.20
2019-06-20T03:20:04.694Z,21.20
2019-06-20T03:22:36.562Z,21.30
2019-06-20T03:25:08.236Z,21.40
2019-06-20T03:27:39.721Z,21.40
2019-06-20T03:30:12.628Z,21.50
2019-06-20T03:32:43.991Z,21.60
2019-06-20T03:35:15.642Z,22.00
2019-06-20T03:37:50.142Z,23.60
2019-06-20T03:40:19.919Z,25.50
2019-06-20T03:42:51.273Z,26.80
2019-06-20T03:45:22.512Z,27.70
2019-06-20T03:47:53.929Z,27.30
2019-06-20T03:50:25.266Z,27.90
2019-06-20T03:53:02.694Z,28.30
2019-06-20T03:55:35.216Z,28.50
2019-06-20T03:58:06.812Z,28.10
2019-06-20T04:00:38.335Z,28.50
2019-06-20T04:03:10.666Z,29.20
2019-06-20T04:05:42.534Z,29.40
2019-06-20T04:08:13.911Z,29.60
2019-06-20T04:10:45.341Z,29.90
2019-06-20T04:13:16.740Z,29.70
2019-06-20T04:15:48.041Z,30.10
2019-06-20T04:18:19.387Z,29.70
2019-06-20T04:20:50.776Z,29.60
2019-06-20T04:23:22.100Z,29.50
2019-06-20T04:25:53.458Z,29.70
2019-06-20T04:28:24.909Z,30.40
2019-06-20T04:30:56.186Z,30.70
2019-06-20T04:33:27.675Z,31.10
2019-06-20T04:36:00.627Z,31.20
2019-06-20T04:38:31.939Z,31.70
2019-06-20T04:41:04.015Z,31.90
2019-06-20T04:43:35.707Z,32.50
2019-06-20T04:46:30.638Z,32.90
2019-06-20T04:49:01.990Z,33.60
2019-06-20T04:51:33.706Z,33.60
2019-06-20T04:54:05.196Z,33.70
2019-06-20T04:56:37.722Z,34.20
2019-06-20T04:59:09.405Z,34.70
2019-06-20T05:01:41.034Z,34.40
2019-06-20T05:04:12.342Z,35.00
2019-06-20T05:06:45.408Z,34.70
2019-06-20T05:09:16.812Z,35.10
2019-06-20T05:11:48.268Z,35.40
2019-06-20T05:14:19.660Z,35.30
2019-06-20T05:16:51.564Z,35.40
2019-06-20T05:19:23.126Z,36.00
2019-06-20T05:21:54.483Z,34.20
2019-06-20T05:24:25.968Z,35.00
2019-06-20T05:26:57.470Z,35.30
2019-06-20T05:29:28.873Z,35.50
2019-06-20T05:32:00.886Z,36.10
2019-06-20T05:34:32.338Z,36.80
2019-06-20T05:37:04.038Z,34.20
2019-06-20T05:39:35.693Z,32.10
2019-06-20T05:42:07.037Z,31.80
2019-06-20T05:44:39.042Z,31.60
2019-06-20T05:47:13.465Z,30.80
2019-06-20T05:49:43.457Z,30.60
2019-06-20T05:52:14.758Z,30.50
2019-06-20T05:54:46.170Z,30.60
2019-06-20T05:57:17.608Z,30.80
2019-06-20T05:59:48.952Z,30.60
2019-06-20T06:02:20.338Z,32.10
2019-06-20T06:04:51.710Z,32.90
2019-06-20T06:07:23.184Z,32.20
2019-06-20T06:09:54.647Z,30.70
2019-06-20T06:12:26.047Z,29.90
2019-06-20T06:15:00.763Z,28.80
2019-06-20T06:17:30.371Z,28.00
2019-06-20T06:20:03.324Z,27.80
2019-06-20T06:22:34.953Z,27.60
2019-06-20T06:25:07.016Z,27.40
2019-06-20T06:27:38.441Z,27.60
2019-06-20T06:30:11.026Z,27.50
2019-06-20T06:32:42.424Z,27.60
2019-06-20T06:35:14.391Z,27.30
2019-06-20T06:37:46.658Z,26.70
2019-06-20T06:40:18.314Z,26.90
2019-06-20T06:42:49.764Z,26.90
2019-06-20T06:45:22.416Z,27.00
2019-06-20T06:47:53.762Z,27.30
2019-06-20T06:50:26.153Z,27.30
2019-06-20T06:52:57.608Z,27.10
2019-06-20T06:55:28.909Z,26.40
2019-06-20T06:58:00.316Z,26.10
2019-06-20T07:00:31.663Z,25.40
2019-06-20T07:03:03.542Z,25.30
2019-06-20T07:05:36.671Z,25.50
2019-06-20T07:08:08.301Z,25.70
2019-06-20T07:10:39.667Z,25.80
2019-06-20T07:13:11.065Z,25.90
2019-06-20T07:15:42.482Z,26.20
2019-06-20T07:18:13.964Z,26.40
2019-06-20T07:20:45.518Z,26.50
2019-06-20T07:23:16.990Z,26.70
2019-06-20T07:25:48.416Z,26.90
2019-06-20T07:28:19.984Z,26.70
2019-06-20T07:30:52.254Z,26.50
2019-06-20T07:33:23.711Z,26.70
2019-06-20T07:35:55.057Z,26.80
2019-06-20T07:38:26.424Z,26.90
2019-06-20T07:40:57.728Z,26.90
2019-06-20T07:43:29.115Z,27.10
2019-06-20T07:46:02.945Z,27.20
2019-06-20T07:48:34.099Z,26.90
2019-06-20T07:51:05.389Z,26.90
2019-06-20T07:53:37.567Z,26.70
2019-06-20T07:56:09.577Z,26.50
2019-06-20T07:58:40.914Z,26.10
2019-06-20T08:01:12.294Z,26.20
2019-06-20T08:03:45.241Z,26.40
2019-06-20T08:06:16.850Z,26.50
2019-06-20T08:08:48.204Z,26.80
2019-06-20T08:11:19.546Z,26.80
2019-06-20T08:13:50.992Z,26.70
2019-06-20T08:16:23.457Z,26.80
2019-06-20T08:18:54.741Z,26.60
2019-06-20T08:21:27.064Z,26.40
2019-06-20T08:24:01.120Z,26.40
2019-06-20T08:26:32.470Z,26.60
2019-06-20T08:29:16.218Z,26.60
2019-06-20T08:31:37.970Z,26.60
2019-06-20T08:34:10.608Z,26.50
2019-06-20T08:36:41.954Z,26.40
2019-06-20T08:39:13.602Z,26.40
2019-06-20T08:41:45.099Z,26.40
2019-06-20T08:44:16.388Z,26.50
2019-06-20T08:46:47.842Z,26.60
2019-06-20T08:49:19.236Z,26.60
2019-06-20T08:51:50.602Z,26.60
2019-06-20T08:54:21.919Z,26.50
2019-06-20T08:56:54.538Z,26.40
2019-06-20T08:59:26.230Z,26.30
2019-06-20T09:01:58.807Z,26.30
2019-06-20T09:04:31.006Z,26.40
2019-06-20T09:09:35.770Z,26.40
2019-06-20T09:12:07.128Z,26.40
2019-06-20T09:14:38.581Z,26.40
2019-06-20T09:17:10.181Z,26.40
2019-06-20T09:19:41.734Z,26.40
2019-06-20T09:22:13.122Z,26.40
2019-06-20T09:24:44.498Z,26.40
2019-06-20T09:27:15.879Z,26.30
2019-06-20T09:29:47.536Z,26.30
2019-06-20T09:32:18.920Z,26.30
2019-06-20T09:34:51.524Z,26.40
2019-06-20T09:37:25.856Z,26.20
2019-06-20T09:39:57.323Z,26.20
2019-06-20T09:42:28.626Z,26.20
2019-06-20T09:45:00.017Z,26.00
2019-06-20T09:47:38.730Z,26.10
2019-06-20T09:50:11.582Z,25.80
2019-06-20T09:52:43.056Z,25.60
2019-06-20T09:55:14.574Z,25.80
2019-06-20T09:57:49.187Z,26.00
2019-06-20T10:00:20.980Z,25.90
2019-06-20T10:02:54.032Z,25.70
2019-06-20T10:05:25.997Z,25.60
2019-06-20T10:07:57.390Z,25.60
2019-06-20T10:10:32.662Z,25.30
2019-06-20T10:13:04.590Z,25.50
2019-06-20T10:15:38.358Z,25.30
2019-06-20T10:18:10.708Z,25.50
2019-06-20T10:20:42.145Z,25.50
2019-06-20T10:23:13.490Z,25.30
2019-06-20T10:25:47.764Z,25.20
2019-06-20T10:28:25.210Z,25.30
2019-06-20T10:30:57.862Z,25.10
2019-06-20T10:33:29.606Z,25.20
2019-06-20T10:36:01.169Z,25.30
2019-06-20T10:38:32.491Z,25.00
2019-06-20T10:41:04.978Z,25.10
2019-06-20T10:43:37.302Z,24.90
2019-06-20T10:46:09.112Z,25.10
2019-06-20T10:48:42.498Z,25.00
2019-06-20T10:51:34.646Z,25.10
2019-06-20T10:54:08.269Z,25.00
2019-06-20T10:56:42.231Z,25.20
2019-06-20T10:59:14.792Z,25.00
2019-06-20T11:01:46.628Z,25.20
2019-06-20T11:04:18.761Z,25.30
2019-06-20T11:06:50.266Z,25.20
2019-06-20T11:09:24.317Z,25.10
2019-06-20T11:11:55.822Z,25.20
2019-06-20T11:14:27.325Z,25.20
2019-06-20T11:16:59.957Z,25.30
2019-06-20T11:19:32.750Z,25.30
2019-06-20T11:22:08.247Z,25.00
2019-06-20T11:24:40.816Z,24.90
2019-06-20T11:27:12.345Z,24.90
2019-06-20T11:29:49.008Z,24.90
2019-06-20T11:32:20.299Z,25.00
2019-06-20T11:34:51.774Z,24.90
2019-06-20T11:37:23.231Z,24.70
2019-06-20T11:39:56.266Z,24.70
2019-06-20T11:42:28.231Z,24.80
2019-06-20T11:45:00.927Z,24.80
2019-06-20T11:47:32.248Z,24.70
2019-06-20T11:50:04.752Z,24.40
2019-06-20T11:52:42.038Z,24.50
2019-06-20T11:55:10.025Z,24.70
2019-06-20T11:57:41.485Z,24.90
2019-06-20T12:00:13.458Z,25.10
2019-06-20T12:02:46.094Z,25.20
2019-06-20T12:05:19.059Z,25.30
2019-06-20T12:07:51.335Z,25.40
2019-06-20T12:10:24.812Z,25.70
2019-06-20T12:12:56.226Z,26.00
2019-06-20T12:15:27.685Z,26.30
2019-06-20T12:17:59.023Z,26.30
2019-06-20T12:20:30.375Z,26.10
2019-06-20T12:23:01.760Z,25.90
2019-06-20T12:25:33.841Z,25.90
2019-06-20T12:28:05.283Z,25.90
2019-06-20T12:30:38.365Z,25.80
2019-06-20T12:33:11.240Z,25.80
2019-06-20T12:35:42.744Z,25.50
2019-06-20T12:38:15.261Z,25.30
2019-06-20T12:40:46.812Z,25.20
2019-06-20T12:43:18.737Z,25.10
2019-06-20T12:45:50.151Z,24.90
2019-06-20T12:48:21.516Z,24.50
2019-06-20T12:50:52.930Z,24.50
2019-06-20T12:53:25.293Z,24.40
2019-06-20T12:55:57.330Z,24.40
2019-06-20T12:58:28.666Z,24.10
2019-06-20T13:01:00.087Z,23.80
2019-06-20T13:03:31.327Z,23.50
2019-06-20T13:06:04.320Z,23.00
2019-06-20T13:08:36.175Z,22.20
2019-06-20T13:11:07.509Z,21.30
2019-06-20T13:13:40.220Z,21.00
2019-06-20T13:16:12.887Z,21.10
2019-06-20T13:18:44.624Z,20.80
2019-06-20T13:21:18.915Z,21.00
2019-06-20T13:23:49.641Z,21.00
2019-06-20T13:26:21.945Z,21.00
2019-06-20T13:29:03.524Z,20.30
2019-06-20T13:31:26.364Z,19.60
2019-06-20T13:57:08.636Z,19.30
2019-06-20T13:59:40.305Z,19.50
2019-06-20T14:02:12.833Z,19.60
2019-06-20T14:04:44.489Z,19.60
2019-06-20T14:07:15.858Z,19.70
2019-06-20T14:09:47.237Z,19.90
2019-06-20T14:12:18.727Z,20.00
2019-06-20T14:14:50.342Z,20.10
2019-06-20T14:17:21.783Z,20.10
2019-06-20T14:19:53.190Z,20.20
2019-06-20T14:22:24.509Z,20.50
2019-06-20T14:24:55.884Z,20.40
2019-06-20T14:27:27.257Z,20.40
2019-06-20T14:29:58.704Z,20.20
2019-06-20T14:32:30.138Z,20.30
2019-06-20T14:35:01.405Z,20.20
2019-06-20T14:37:32.860Z,20.30
2019-06-20T14:40:04.586Z,20.30
2019-06-20T14:42:36.026Z,20.40
2019-06-20T14:45:08.822Z,20.50
2019-06-20T14:47:40.138Z,20.60
2019-06-20T14:50:12.345Z,20.80
2019-06-20T14:52:44.605Z,20.70
2019-06-20T14:55:16.857Z,20.80
2019-06-20T14:57:48.510Z,20.70
2019-06-20T15:00:23.487Z,20.80
2019-06-20T15:02:58.372Z,20.80
2019-06-20T15:05:27.869Z,21.00
2019-06-20T15:07:59.228Z,21.00
2019-06-20T15:10:30.667Z,21.00
2019-06-20T15:13:02.130Z,20.90
2019-06-20T15:15:33.482Z,20.80
2019-06-20T15:18:04.940Z,20.80
2019-06-20T15:20:36.214Z,20.90
2019-06-20T15:23:07.625Z,20.90
2019-06-20T15:25:38.982Z,21.00
2019-06-20T15:28:10.424Z,20.90
2019-06-20T15:30:41.775Z,21.00
2019-06-20T15:33:13.659Z,21.10
2019-06-20T15:35:45.037Z,21.20
2019-06-20T15:38:16.384Z,21.50
2019-06-20T15:40:49.395Z,21.60
2019-06-20T15:43:20.673Z,21.60
2019-06-20T15:45:52.169Z,21.70
2019-06-20T15:48:23.547Z,21.60
2019-06-20T15:50:54.979Z,21.80
2019-06-20T15:53:26.393Z,21.90
2019-06-20T15:55:57.821Z,22.20
2019-06-20T15:58:29.372Z,22.30
2019-06-20T16:01:00.736Z,22.30
2019-06-20T16:03:32.121Z,22.30
2019-06-20T16:06:03.518Z,22.30
2019-06-20T16:08:34.842Z,22.30
2019-06-20T16:11:06.190Z,22.30
2019-06-20T16:13:37.537Z,22.40
2019-06-20T16:16:08.948Z,22.40
2019-06-20T16:18:40.293Z,22.40
2019-06-20T16:21:11.645Z,22.20
2019-06-20T16:23:42.983Z,22.20
2019-06-20T16:26:14.442Z,22.20
2019-06-20T16:28:45.764Z,22.00
2019-06-20T16:31:26.305Z,21.90
2019-06-20T16:33:50.080Z,21.80
2019-06-20T16:36:21.736Z,21.80
2019-06-20T16:38:53.176Z,21.80
2019-06-20T16:41:24.704Z,21.60
2019-06-20T16:43:56.159Z,21.60
2019-06-20T16:46:27.572Z,21.50
2019-06-20T16:48:59.056Z,21.50
2019-06-20T16:51:30.373Z,21.70
2019-06-20T16:54:01.696Z,21.80
2019-06-20T16:56:33.038Z,21.80
2019-06-20T16:59:05.773Z,21.80
2019-06-20T17:01:37.113Z,21.70
2019-06-20T17:04:08.559Z,21.50
2019-06-20T17:06:39.898Z,21.60
2019-06-20T17:09:11.244Z,21.50
2019-06-20T17:11:42.661Z,21.50
2019-06-20T17:14:13.991Z,21.50
2019-06-20T17:16:45.401Z,21.50
2019-06-20T17:19:16.763Z,21.50
2019-06-20T17:21:48.208Z,21.60
2019-06-20T17:24:19.664Z,21.60
2019-06-20T17:26:51.064Z,21.50
2019-06-20T17:29:22.501Z,21.40
2019-06-20T17:31:57.275Z,21.40
2019-06-20T17:34:26.913Z,21.50
2019-06-20T17:36:58.294Z,21.60
2019-06-20T17:39:29.654Z,21.60
2019-06-20T17:42:01.246Z,21.50
2019-06-20T17:44:32.603Z,21.50
2019-06-20T17:47:03.949Z,21.50
2019-06-20T17:49:35.296Z,21.50
2019-06-20T17:52:06.703Z,21.40
2019-06-20T17:54:38.013Z,21.40
2019-06-20T17:57:09.433Z,21.40
2019-06-20T17:59:40.805Z,21.60
2019-06-20T18:02:12.644Z,21.60
2019-06-20T18:04:47.045Z,21.60
2019-06-20T18:07:18.368Z,21.50
2019-06-20T18:09:53.422Z,21.30
2019-06-20T18:12:22.661Z,21.30
2019-06-20T18:14:54.162Z,21.30
2019-06-20T18:17:25.603Z,21.30
2019-06-20T18:19:57.123Z,21.50
2019-06-20T18:22:28.462Z,21.40
2019-06-20T18:24:59.824Z,21.30
2019-06-20T18:27:31.255Z,21.30
2019-06-20T18:30:02.608Z,21.30
2019-06-20T18:32:34.031Z,21.30
2019-06-20T18:35:05.984Z,21.30
2019-06-20T18:37:37.447Z,21.30
2019-06-20T18:40:09.516Z,21.20
2019-06-20T18:42:40.879Z,21.10
2019-06-20T18:45:12.481Z,21.10
2019-06-20T18:47:43.834Z,21.00
2019-06-20T18:50:16.741Z,21.10
2019-06-20T18:52:52.075Z,21.20
2019-06-20T18:55:21.194Z,21.20
2019-06-20T18:57:52.508Z,21.30
2019-06-20T19:00:34.107Z,21.20
2019-06-20T19:02:57.279Z,21.10
2019-06-20T19:05:28.599Z,21.00
2019-06-20T19:08:00.237Z,21.00
2019-06-20T19:10:33.520Z,21.10
2019-06-20T19:13:05.619Z,21.10
2019-06-20T19:15:37.061Z,21.10
2019-06-20T19:18:08.414Z,21.00
2019-06-20T19:20:39.894Z,20.90
2019-06-20T19:23:11.576Z,20.80
2019-06-20T19:25:42.928Z,20.80
2019-06-20T19:28:14.697Z,21.00
2019-06-20T19:30:51.145Z,20.90
2019-06-20T19:33:23.107Z,20.80
2019-06-20T19:35:54.528Z,20.80
2019-06-20T19:38:25.898Z,20.80
2019-06-20T19:40:57.254Z,20.70
2019-06-20T19:43:28.563Z,20.80
2019-06-20T19:45:59.893Z,20.80
2019-06-20T19:48:31.215Z,20.80
2019-06-20T19:51:02.535Z,20.80
2019-06-20T19:53:33.929Z,20.70
2019-06-20T19:56:05.488Z,20.80
2019-06-20T19:58:36.860Z,20.80
2019-06-20T20:01:08.336Z,20.80
2019-06-20T20:03:39.698Z,20.70
2019-06-20T20:06:11.054Z,20.80
2019-06-20T20:08:42.585Z,20.70
2019-06-20T20:11:14.048Z,20.60
2019-06-20T20:13:45.436Z,20.40
2019-06-20T20:16:16.767Z,20.50
2019-06-20T20:18:48.123Z,20.40
2019-06-20T20:21:19.581Z,20.50
2019-06-20T20:23:50.944Z,20.50
2019-06-20T20:26:22.325Z,20.50
2019-06-20T20:28:53.693Z,20.40
2019-06-20T20:31:25.275Z,20.40
2019-06-20T20:33:56.703Z,20.40
2019-06-20T20:36:28.092Z,20.30
2019-06-20T20:38:59.541Z,20.40
2019-06-20T20:41:30.917Z,20.40
2019-06-20T20:44:02.256Z,20.40
2019-06-20T20:46:33.744Z,20.30
2019-06-20T20:49:05.144Z,20.30
2019-06-20T20:51:37.444Z,20.30
2019-06-20T20:54:08.876Z,20.20
2019-06-20T20:56:40.242Z,20.20
2019-06-20T20:59:11.666Z,20.20
2019-06-20T21:01:43.130Z,20.10
2019-06-20T21:04:15.519Z,20.10
2019-06-20T21:06:46.874Z,20.10
2019-06-20T21:09:18.216Z,20.10
2019-06-20T21:11:49.951Z,20.10
2019-06-20T21:14:21.673Z,20.00
2019-06-20T21:16:53.017Z,20.00
2019-06-20T21:19:24.446Z,19.90
2019-06-20T21:21:55.999Z,19.90
2019-06-20T21:24:27.775Z,20.00
2019-06-20T21:26:59.124Z,20.00
2019-06-20T21:29:30.736Z,20.00
2019-06-20T21:32:02.506Z,20.10
2019-06-20T21:34:33.985Z,20.10
2019-06-20T21:37:05.288Z,20.00
2019-06-20T21:39:38.743Z,20.00
2019-06-20T21:42:27.082Z,19.90
2019-06-20T21:44:58.448Z,19.90
2019-06-20T21:47:29.937Z,19.90
2019-06-20T21:50:07.062Z,19.80
2019-06-20T21:52:38.509Z,19.80
2019-06-20T21:55:10.177Z,19.70
2019-06-20T21:57:41.531Z,19.60
2019-06-20T22:00:17.196Z,19.60
2019-06-20T22:02:49.816Z,19.50
2019-06-20T22:05:21.362Z,19.50
2019-06-20T22:07:52.696Z,19.50
2019-06-20T22:10:41.617Z,19.60
2019-06-20T22:13:13.952Z,19.60
2019-06-20T22:15:48.339Z,19.60
2019-06-20T22:18:19.684Z,19.60
2019-06-20T22:20:51.153Z,19.60
2019-06-20T22:23:28.483Z,19.50
2019-06-20T22:25:59.811Z,19.60
2019-06-20T22:28:31.085Z,19.60
2019-06-20T22:31:02.639Z,19.60
2019-06-20T22:33:33.943Z,19.50
2019-06-20T22:36:36.128Z,19.50
2019-06-20T22:38:56.156Z,19.40
2019-06-20T22:41:27.520Z,19.50
2019-06-20T22:43:58.838Z,19.40
2019-06-20T22:47:00.118Z,19.30
2019-06-20T22:49:31.400Z,19.30
2019-06-20T22:52:02.862Z,19.20
2019-06-20T22:54:34.198Z,19.20
2019-06-20T22:57:05.568Z,19.10
2019-06-20T22:59:49.150Z,19.20
2019-06-20T23:02:20.674Z,19.20
2019-06-20T23:04:51.995Z,19.10
2019-06-20T23:07:41.010Z,19.00
2019-06-20T23:10:12.394Z,18.90
2019-06-20T23:12:43.831Z,18.90
2019-06-20T23:15:15.612Z,18.90
2019-06-20T23:17:46.931Z,18.90
2019-06-20T23:20:18.603Z,18.80
2019-06-20T23:22:50.163Z,18.80
2019-06-20T23:25:21.588Z,18.70
2019-06-20T23:27:53.092Z,18.70
2019-06-20T23:30:24.797Z,18.80
2019-06-20T23:32:56.218Z,18.70
2019-06-20T23:35:28.074Z,18.60
2019-06-20T23:37:59.390Z,18.60
2019-06-20T23:40:30.730Z,18.60
2019-06-20T23:43:02.234Z,18.60
2019-06-20T23:45:33.972Z,18.50
2019-06-20T23:48:05.477Z,18.50
2019-06-20T23:50:37.845Z,18.50
2019-06-20T23:53:28.075Z,18.50
2019-06-20T23:55:59.516Z,18.50
2019-06-20T23:58:30.812Z,18.50
